createdAt,value
2022-10-17T00:01:16.989Z,96724.50
2022-10-17T00:04:02.685Z,96727.72
2022-10-17T00:06:48.382Z,96725.56
2022-10-17T00:09:34.219Z,96722.09
2022-10-17T00:12:19.938Z,96724.50
2022-10-17T00:15:07.248Z,96733.69
2022-10-17T00:17:53.111Z,96738.59
2022-10-17T00:20:39.033Z,96730.50
2022-10-17T00:23:27.471Z,96737.00
2022-10-17T00:26:13.421Z,96730.53
2022-10-17T00:28:59.276Z,96739.16
2022-10-17T00:31:45.336Z,96744.88
2022-10-17T00:34:31.233Z,96742.72
2022-10-17T00:37:17.253Z,96736.50
2022-10-17T00:40:04.035Z,96734.38
2022-10-17T00:42:53.065Z,96736.00
2022-10-17T00:45:39.062Z,96743.59
2022-10-17T00:48:26.096Z,96745.22
2022-10-17T00:51:11.774Z,96745.75
2022-10-17T00:54:00.410Z,96739.28
2022-10-17T00:56:47.230Z,96746.34
2022-10-17T00:59:34.580Z,96744.44
2022-10-17T01:02:22.224Z,96749.59
2022-10-17T01:05:09.906Z,96752.84
2022-10-17T01:07:56.447Z,96747.97
2022-10-17T01:11:12.829Z,96747.75
2022-10-17T01:14:04.440Z,96744.25
2022-10-17T01:16:57.258Z,96742.06
2022-10-17T01:20:07.394Z,96736.16
2022-10-17T01:23:05.339Z,96735.63
2022-10-17T01:26:13.039Z,96733.47
2022-10-17T01:29:37.499Z,96724.59
2022-10-17T01:32:34.672Z,96731.59
2022-10-17T01:35:32.830Z,96727.56
2022-10-17T01:38:25.433Z,96729.22
2022-10-17T01:41:39.938Z,96726.50
2022-10-17T01:44:46.633Z,96730.28
2022-10-17T01:47:33.872Z,96722.19
2022-10-17T01:50:26.281Z,96727.59
2022-10-17T01:53:15.970Z,96725.97
2022-10-17T01:56:03.472Z,96718.97
2022-10-17T01:58:57.268Z,96731.91
2022-10-17T02:01:43.681Z,96729.22
2022-10-17T02:04:29.897Z,96722.22
2022-10-17T02:07:16.387Z,96723.03
2022-10-17T02:10:09.158Z,96735.16
2022-10-17T02:13:21.478Z,96725.44
2022-10-17T02:16:22.602Z,96731.66
2022-10-17T02:19:28.441Z,96734.63
2022-10-17T02:22:33.076Z,96739.22
2022-10-17T02:25:49.251Z,96748.13
2022-10-17T02:28:47.904Z,96741.66
2022-10-17T02:31:42.121Z,96754.09
2022-10-17T02:34:36.082Z,96756.25
2022-10-17T02:37:25.930Z,96749.75
2022-10-17T02:40:14.433Z,96758.69
2022-10-17T02:43:01.108Z,96761.38
2022-10-17T02:45:48.738Z,96745.72
2022-10-17T02:48:39.130Z,96764.09
2022-10-17T02:51:37.329Z,96763.28
2022-10-17T02:54:42.025Z,96770.56
2022-10-17T02:57:31.036Z,96772.44
2022-10-17T03:00:17.982Z,96774.06
2022-10-17T03:03:20.017Z,96774.06
2022-10-17T03:06:05.778Z,96781.09
2022-10-17T03:08:51.688Z,96772.44
2022-10-17T03:11:37.753Z,96777.03
2022-10-17T03:14:25.729Z,96777.59
2022-10-17T03:17:11.700Z,96788.13
2022-10-17T03:19:58.564Z,96792.72
2022-10-17T03:22:44.466Z,96785.41
2022-10-17T03:25:30.517Z,96780.81
2022-10-17T03:28:17.096Z,96789.72
2022-10-17T03:31:15.132Z,96795.66
2022-10-17T03:34:03.128Z,96791.34
2022-10-17T03:36:49.367Z,96786.50
2022-10-17T03:39:35.255Z,96796.19
2022-10-17T03:42:21.541Z,96788.91
2022-10-17T03:45:08.219Z,96805.41
2022-10-17T03:47:55.080Z,96798.91
2022-10-17T03:50:40.811Z,96800.50
2022-10-17T03:53:28.603Z,96795.91
2022-10-17T03:56:18.150Z,96798.91
2022-10-17T03:59:14.305Z,96795.09
2022-10-17T04:02:02.449Z,96792.44
2022-10-17T04:04:48.465Z,96792.44
2022-10-17T04:07:38.391Z,96801.59
2022-10-17T04:10:25.221Z,96801.34
2022-10-17T04:13:10.930Z,96810.25
2022-10-17T04:16:05.428Z,96809.72
2022-10-17T04:18:56.507Z,96808.09
2022-10-17T04:21:44.587Z,96813.75
2022-10-17T04:24:30.334Z,96810.78
2022-10-17T04:27:30.701Z,96808.63
2022-10-17T04:30:17.499Z,96815.66
2022-10-17T04:33:04.059Z,96808.34
2022-10-17T04:36:08.105Z,96816.72
2022-10-17T04:38:54.841Z,96812.94
2022-10-17T04:41:40.656Z,96824.81
2022-10-17T04:44:26.991Z,96811.84
2022-10-17T04:47:12.775Z,96817.81
2022-10-17T04:49:58.534Z,96816.72
2022-10-17T04:52:44.583Z,96817.22
2022-10-17T04:55:31.485Z,96814.84
2022-10-17T04:58:17.491Z,96815.09
2022-10-17T05:01:08.081Z,96828.59
2022-10-17T05:03:56.024Z,96830.19
2022-10-17T05:06:42.234Z,96827.50
2022-10-17T05:10:03.839Z,96832.38
2022-10-17T05:12:51.306Z,96834.56
2022-10-17T05:15:40.017Z,96840.19
2022-10-17T05:18:25.933Z,96842.34
2022-10-17T05:21:12.059Z,96843.72
2022-10-17T05:23:58.274Z,96849.66
2022-10-17T05:26:44.326Z,96856.13
2022-10-17T05:29:31.090Z,96860.72
2022-10-17T05:32:25.500Z,96863.97
2022-10-17T05:35:11.237Z,96865.34
2022-10-17T05:37:58.376Z,96871.28
2022-10-17T05:40:44.597Z,96871.53
2022-10-17T05:43:31.286Z,96883.97
2022-10-17T05:46:18.204Z,96874.50
2022-10-17T05:49:14.718Z,96884.78
2022-10-17T05:52:09.843Z,96893.94
2022-10-17T05:55:10.062Z,96893.69
2022-10-17T05:57:56.513Z,96893.94
2022-10-17T06:00:44.260Z,96893.41
2022-10-17T06:03:30.762Z,96881.25
2022-10-17T06:06:18.571Z,96906.91
2022-10-17T06:09:06.294Z,96901.50
2022-10-17T06:11:55.546Z,96912.31
2022-10-17T06:14:41.295Z,96906.91
2022-10-17T06:17:28.219Z,96917.19
2022-10-17T06:20:14.469Z,96911.25
2022-10-17T06:23:00.518Z,96918.53
2022-10-17T06:26:03.199Z,96917.69
2022-10-17T06:28:49.537Z,96922.56
2022-10-17T06:31:35.474Z,96928.25
2022-10-17T06:34:21.709Z,96927.66
2022-10-17T06:37:08.037Z,96932.00
2022-10-17T06:39:56.305Z,96918.75
2022-10-17T06:42:43.040Z,96932.78
2022-10-17T06:46:05.092Z,96943.56
2022-10-17T06:48:56.229Z,96930.59
2022-10-17T06:52:01.215Z,96943.00
2022-10-17T06:58:12.829Z,96944.03
2022-10-17T07:01:14.934Z,96953.72
2022-10-17T07:04:03.248Z,96958.03
2022-10-17T07:06:50.383Z,96956.94
2022-10-17T07:09:40.143Z,96961.22
2022-10-17T07:12:27.064Z,96951.47
2022-10-17T07:15:13.320Z,96954.66
2022-10-17T07:17:59.522Z,96958.66
2022-10-17T07:20:53.288Z,96953.22
2022-10-17T07:23:39.957Z,96955.66
2022-10-17T07:26:25.967Z,96955.63
2022-10-17T07:29:12.374Z,96962.00
2022-10-17T07:32:08.630Z,96964.13
2022-10-17T07:34:54.559Z,96966.16
2022-10-17T07:37:40.769Z,96960.72
2022-10-17T07:40:26.591Z,96966.59
2022-10-17T07:43:12.415Z,96973.53
2022-10-17T07:45:58.094Z,96967.50
2022-10-17T07:48:44.332Z,96961.97
2022-10-17T07:51:30.150Z,96966.28
2022-10-17T07:54:15.970Z,96964.38
2022-10-17T07:57:01.941Z,96964.56
2022-10-17T07:59:48.314Z,96965.66
2022-10-17T08:02:34.379Z,96960.25
2022-10-17T08:05:20.237Z,96966.28
2022-10-17T08:08:06.086Z,96961.41
2022-10-17T08:10:51.958Z,96961.97
2022-10-17T08:13:37.730Z,96960.94
2022-10-17T08:16:23.521Z,96961.22
2022-10-17T08:19:11.438Z,96955.03
2022-10-17T08:21:58.426Z,96959.31
2022-10-17T08:24:45.403Z,96954.47
2022-10-17T08:27:33.678Z,96951.69
2022-10-17T08:30:19.323Z,96950.09
2022-10-17T08:33:05.104Z,96959.22
2022-10-17T08:35:50.787Z,96959.75
2022-10-17T08:38:38.514Z,96949.91
2022-10-17T08:41:42.847Z,96959.00
2022-10-17T08:44:48.340Z,96957.28
2022-10-17T08:47:40.234Z,96954.47
2022-10-17T08:50:42.969Z,96957.59
2022-10-17T08:53:49.315Z,96948.72
2022-10-17T08:56:48.456Z,96955.88
2022-10-17T08:59:35.146Z,96943.47
2022-10-17T09:02:41.255Z,96943.25
2022-10-17T09:05:28.513Z,96943.53
2022-10-17T09:08:35.390Z,96946.53
2022-10-17T09:11:52.635Z,96935.34
2022-10-17T09:14:43.133Z,96947.22
2022-10-17T09:17:41.425Z,96939.47
2022-10-17T09:20:45.362Z,96936.19
2022-10-17T09:23:46.808Z,96938.59
2022-10-17T09:26:32.675Z,96938.53
2022-10-17T09:29:23.819Z,96937.09
2022-10-17T09:32:23.002Z,96937.28
2022-10-17T09:35:15.394Z,96932.50
2022-10-17T09:38:01.236Z,96933.72
2022-10-17T10:34:22.195Z,96901.19
2022-10-17T10:37:23.784Z,96898.41
2022-10-17T10:40:18.974Z,96890.72
2022-10-17T10:43:06.140Z,96887.38
2022-10-17T10:45:52.683Z,96878.47
2022-10-17T10:48:54.402Z,96877.31
2022-10-17T10:51:43.869Z,96877.81
2022-10-17T10:54:34.805Z,96867.81
2022-10-17T10:57:21.756Z,96866.66
2022-10-17T11:00:17.604Z,96858.78
2022-10-17T11:03:16.738Z,96855.69
2022-10-17T11:06:13.346Z,96863.41
2022-10-17T11:09:33.900Z,96860.97
2022-10-17T11:12:28.210Z,96856.09
2022-10-17T11:15:22.362Z,96851.53
2022-10-17T11:18:26.891Z,96857.56
2022-10-17T11:21:23.934Z,96848.50
2022-10-17T11:24:26.738Z,96840.22
2022-10-17T11:27:19.148Z,96842.97
2022-10-17T11:30:07.168Z,96829.47
2022-10-17T11:32:59.066Z,96835.56
2022-10-17T11:35:46.556Z,96829.53
2022-10-17T11:38:53.046Z,96832.88
2022-10-17T11:41:47.298Z,96819.28
2022-10-17T11:44:37.623Z,96821.50
2022-10-17T11:47:54.244Z,96818.81
2022-10-17T11:53:57.077Z,96817.16
2022-10-17T11:57:32.861Z,96813.88
2022-10-17T12:00:46.149Z,96807.44
2022-10-17T12:03:45.761Z,96803.78
2022-10-17T12:06:40.346Z,96806.97
2022-10-17T12:09:26.190Z,96806.50
2022-10-17T12:12:25.505Z,96796.84
2022-10-17T12:15:14.425Z,96796.81
2022-10-17T12:18:04.163Z,96801.56
2022-10-17T12:20:59.982Z,96786.09
2022-10-17T12:23:54.916Z,96797.56
2022-10-17T12:26:41.044Z,96794.63
2022-10-17T12:29:29.272Z,96793.09
2022-10-17T12:32:16.577Z,96779.94
2022-10-17T12:35:02.547Z,96785.50
2022-10-17T12:37:48.572Z,96789.81
2022-10-17T12:40:37.280Z,96779.31
2022-10-17T12:43:29.205Z,96776.19
2022-10-17T12:46:46.748Z,96787.97
2022-10-17T12:49:54.368Z,96780.38
2022-10-17T12:52:40.219Z,96779.50
2022-10-17T12:55:26.119Z,96770.06
2022-10-17T12:58:14.898Z,96768.25
2022-10-17T13:04:10.032Z,96764.88
2022-10-17T13:06:58.663Z,96763.69
2022-10-17T13:09:45.203Z,96763.41
2022-10-17T13:12:34.049Z,96760.00
2022-10-17T13:15:22.792Z,96758.47
2022-10-17T13:18:19.213Z,96758.56
2022-10-17T13:21:13.839Z,96758.56
2022-10-17T13:24:01.218Z,96741.41
2022-10-17T13:26:47.057Z,96755.41
2022-10-17T13:29:33.313Z,96757.59
2022-10-17T13:32:19.389Z,96748.72
2022-10-17T13:35:09.900Z,96757.06
2022-10-17T13:37:56.241Z,96752.09
2022-10-17T13:40:49.945Z,96764.94
2022-10-17T13:43:36.559Z,96758.06
2022-10-17T13:46:37.824Z,96753.47
2022-10-17T13:49:34.798Z,96758.81
2022-10-17T13:52:23.703Z,96759.56
2022-10-17T13:55:17.612Z,96751.97
2022-10-17T13:58:15.175Z,96759.50
2022-10-17T14:01:01.225Z,96756.81
2022-10-17T14:03:49.856Z,96756.38
2022-10-17T14:06:47.603Z,96748.03
2022-10-17T14:09:36.833Z,96753.41
2022-10-17T14:12:22.742Z,96749.31
2022-10-17T14:15:13.974Z,96759.16
2022-10-17T14:18:07.543Z,96745.84
2022-10-17T14:21:32.135Z,96744.44
2022-10-17T14:24:23.841Z,96750.41
2022-10-17T14:27:29.056Z,96748.06
2022-10-17T14:30:55.338Z,96757.25
2022-10-17T14:33:46.869Z,96753.78
2022-10-17T14:36:38.890Z,96748.56
2022-10-17T14:39:26.405Z,96744.03
2022-10-17T14:42:20.522Z,96739.38
2022-10-17T14:45:11.312Z,96748.22
2022-10-17T14:48:10.436Z,96753.75
2022-10-17T14:51:17.500Z,96757.72
2022-10-17T14:54:30.623Z,96752.09
2022-10-17T14:57:25.593Z,96764.63
2022-10-17T15:00:19.081Z,96752.81
2022-10-17T15:03:05.076Z,96745.53
2022-10-17T15:05:51.818Z,96757.53
2022-10-17T15:08:37.657Z,96756.91
2022-10-17T15:11:23.612Z,96766.94
2022-10-17T15:14:09.687Z,96759.53
2022-10-17T15:16:55.455Z,96769.22
2022-10-17T15:19:41.424Z,96762.16
2022-10-17T15:22:27.794Z,96764.38
2022-10-17T15:25:14.198Z,96760.38
2022-10-17T15:28:00.179Z,96762.22
2022-10-17T15:30:45.896Z,96761.31
2022-10-17T15:33:31.667Z,96761.47
2022-10-17T15:36:25.888Z,96759.19
2022-10-17T15:39:12.070Z,96755.38
2022-10-17T15:41:59.202Z,96774.69
2022-10-17T15:44:49.476Z,96778.22
2022-10-17T15:47:35.842Z,96776.91
2022-10-17T15:50:21.940Z,96778.41
2022-10-17T15:53:12.059Z,96772.63
2022-10-17T15:55:59.142Z,96784.47
2022-10-17T15:58:44.866Z,96781.19
2022-10-17T16:01:31.766Z,96793.69
2022-10-17T16:04:18.557Z,96796.56
2022-10-17T16:07:04.606Z,96811.75
2022-10-17T16:09:50.583Z,96818.25
2022-10-17T16:12:41.224Z,96813.78
2022-10-17T16:15:28.201Z,96827.38
2022-10-17T16:18:14.372Z,96826.75
2022-10-17T16:21:00.161Z,96825.19
2022-10-17T16:23:46.053Z,96837.78
2022-10-17T16:26:32.210Z,96835.84
2022-10-17T16:29:18.074Z,96846.00
2022-10-17T16:32:07.190Z,96835.22
2022-10-17T16:34:53.157Z,96845.84
2022-10-17T16:37:38.855Z,96858.03
2022-10-17T16:40:24.613Z,96851.75
2022-10-17T16:43:12.869Z,96863.16
2022-10-17T16:45:58.946Z,96869.22
2022-10-17T16:48:45.614Z,96876.88
2022-10-17T16:51:33.726Z,96870.25
2022-10-17T16:54:19.697Z,96877.78
2022-10-17T16:57:06.204Z,96888.16
2022-10-17T16:59:52.682Z,96891.19
2022-10-17T17:02:38.914Z,96899.34
2022-10-17T17:05:24.872Z,96902.63
2022-10-17T17:08:12.650Z,96902.91
2022-10-17T17:10:59.275Z,96907.50
2022-10-17T17:13:45.117Z,96918.13
2022-10-17T17:16:32.710Z,96916.16
2022-10-17T17:19:21.906Z,96918.63
2022-10-17T17:22:08.078Z,96926.91
2022-10-17T17:24:54.095Z,96927.63
2022-10-17T17:27:39.885Z,96925.44
2022-10-17T17:30:25.566Z,96935.66
2022-10-17T17:33:12.421Z,96932.03
2022-10-17T17:36:01.239Z,96935.47
2022-10-17T17:38:50.345Z,96937.31
2022-10-17T17:41:36.511Z,96932.59
2022-10-17T17:44:22.510Z,96931.16
2022-10-17T17:47:08.235Z,96933.44
2022-10-17T17:49:54.042Z,96941.72
2022-10-17T17:52:42.177Z,96938.91
2022-10-17T17:55:28.206Z,96938.19
2022-10-17T17:58:21.512Z,96935.88
2022-10-17T18:01:14.846Z,96948.75
2022-10-17T18:04:00.831Z,96946.72
2022-10-17T18:06:46.738Z,96943.69
2022-10-17T18:09:32.516Z,96948.72
2022-10-17T18:12:18.308Z,96939.09
2022-10-17T18:15:05.170Z,96942.00
2022-10-17T18:17:50.828Z,96941.09
2022-10-17T18:20:43.294Z,96938.03
2022-10-17T18:23:29.222Z,96946.84
2022-10-17T18:26:16.076Z,96939.06
2022-10-17T18:29:02.349Z,96944.34
2022-10-17T18:31:48.543Z,96944.72
2022-10-17T18:34:34.195Z,96952.75
2022-10-17T18:37:20.024Z,96946.84
2022-10-17T18:40:06.616Z,96934.88
2022-10-17T18:42:52.674Z,96945.13
2022-10-17T18:45:38.710Z,96948.22
2022-10-17T18:48:25.117Z,96948.88
2022-10-17T18:51:10.879Z,96940.75
2022-10-17T18:53:58.764Z,96949.00
2022-10-17T18:56:45.459Z,96939.06
2022-10-17T18:59:31.147Z,96949.09
2022-10-17T19:02:17.085Z,96937.47
2022-10-17T19:05:03.370Z,96948.06
2022-10-17T19:07:50.318Z,96950.56
2022-10-17T19:10:37.640Z,96951.78
2022-10-17T19:13:23.877Z,96946.69
2022-10-17T19:16:35.537Z,96952.69
2022-10-17T19:19:24.134Z,96951.13
2022-10-17T19:22:09.925Z,96958.78
2022-10-17T19:24:55.827Z,96964.03
2022-10-17T19:27:41.817Z,96967.13
2022-10-17T19:30:28.073Z,96975.28
2022-10-17T19:33:14.403Z,96971.56
2022-10-17T19:36:03.481Z,96971.03
2022-10-17T19:38:49.553Z,96979.72
2022-10-17T19:41:36.480Z,96983.03
2022-10-17T19:44:22.699Z,96967.06
2022-10-17T19:47:08.778Z,96976.59
2022-10-17T19:49:54.597Z,96971.75
2022-10-17T19:52:40.350Z,96965.28
2022-10-17T19:55:26.078Z,96976.16
2022-10-17T19:58:12.011Z,96980.50
2022-10-17T20:01:01.247Z,96975.69
2022-10-17T20:03:47.582Z,96984.91
2022-10-17T20:06:34.223Z,96986.81
2022-10-17T20:09:20.072Z,96987.16
2022-10-17T20:12:06.122Z,96983.63
2022-10-17T20:14:51.914Z,96980.16
2022-10-17T20:17:37.982Z,96979.34
2022-10-17T20:20:24.143Z,96986.16
2022-10-17T20:23:10.451Z,96983.19
2022-10-17T20:26:13.500Z,96983.75
2022-10-17T20:29:08.907Z,96977.28
2022-10-17T20:31:54.912Z,96977.56
2022-10-17T20:34:41.925Z,96972.94
2022-10-17T20:37:27.906Z,96986.75
2022-10-17T20:40:34.021Z,96987.34
2022-10-17T20:43:19.932Z,96977.06
2022-10-17T20:46:22.956Z,96985.19
2022-10-17T20:49:15.069Z,96978.44
2022-10-17T20:52:01.618Z,96984.66
2022-10-17T20:54:47.449Z,96977.13
2022-10-17T20:57:33.469Z,96979.28
2022-10-17T21:00:19.278Z,96986.88
2022-10-17T21:03:06.155Z,96984.72
2022-10-17T21:05:51.927Z,96982.03
2022-10-17T21:08:37.779Z,96983.13
2022-10-17T21:11:26.185Z,96989.06
2022-10-17T21:14:12.587Z,96995.84
2022-10-17T21:17:02.385Z,96996.41
2022-10-17T21:19:50.746Z,96982.31
2022-10-17T21:22:36.769Z,96976.94
2022-10-17T21:25:22.645Z,96985.31
2022-10-17T21:28:08.334Z,96986.38
2022-10-17T21:30:54.152Z,96992.38
2022-10-17T21:33:40.987Z,96983.66
2022-10-17T21:36:27.865Z,96989.09
2022-10-17T21:39:14.835Z,96980.97
2022-10-17T21:42:00.936Z,96980.69
2022-10-17T21:44:46.617Z,96988.00
2022-10-17T21:47:32.475Z,96990.16
2022-10-17T21:50:18.309Z,96982.88
2022-10-17T21:53:04.202Z,96979.34
2022-10-17T21:55:49.853Z,96985.28
2022-10-17T21:58:35.587Z,96982.56
2022-10-17T22:01:29.110Z,96986.34
2022-10-17T22:04:17.037Z,96987.69
2022-10-17T22:07:03.090Z,96987.41
2022-10-17T22:09:48.794Z,96978.50
2022-10-17T22:12:34.483Z,96989.84
2022-10-17T22:15:20.256Z,96990.41
2022-10-17T22:18:05.835Z,96988.47
2022-10-17T22:20:51.595Z,96989.56
2022-10-17T22:23:38.324Z,96983.06
2022-10-17T22:26:24.152Z,96986.84
2022-10-17T22:29:10.520Z,96987.91
2022-10-17T22:31:56.633Z,96987.34
2022-10-17T22:34:42.448Z,96981.41
2022-10-17T22:37:28.334Z,96987.31
2022-10-17T22:40:14.658Z,96984.63
2022-10-17T22:43:00.745Z,96976.22
2022-10-17T22:45:54.325Z,96981.59
2022-10-17T22:48:40.083Z,96980.53
2022-10-17T22:51:26.257Z,96972.69
2022-10-17T22:54:12.348Z,96976.72
2022-10-17T22:56:58.298Z,96971.03
2022-10-17T22:59:44.001Z,96962.94
2022-10-17T23:02:30.269Z,96957.81
2022-10-17T23:05:16.214Z,96965.63
2022-10-17T23:08:02.064Z,96960.75
2022-10-17T23:10:48.089Z,96962.91
2022-10-17T23:13:34.133Z,96957.00
2022-10-17T23:16:19.975Z,96957.50
2022-10-17T23:19:05.708Z,96953.97
2022-10-17T23:21:51.434Z,96955.03
2022-10-17T23:24:37.153Z,96954.75
2022-10-17T23:27:23.002Z,96961.19
2022-10-17T23:30:09.468Z,96953.59
2022-10-17T23:32:55.214Z,96952.19
2022-10-17T23:35:41.809Z,96955.97
2022-10-17T23:38:27.549Z,96956.72
2022-10-17T23:41:13.575Z,96957.81
2022-10-17T23:44:00.121Z,96956.72
2022-10-17T23:46:46.634Z,96955.09
2022-10-17T23:49:32.684Z,96958.03
2022-10-17T23:52:18.708Z,96950.16
2022-10-17T23:55:04.906Z,96954.50
2022-10-17T23:57:50.596Z,96948.84
